createdAt,value
2019-03-22T00:01:32.981Z,67.80
2019-03-22T00:06:36.573Z,68.90
2019-03-22T00:11:40.157Z,67.60
2019-03-22T00:16:43.759Z,68.40
2019-03-22T00:21:47.725Z,68.90
2019-03-22T00:26:51.380Z,69.30
2019-03-22T00:31:54.970Z,68.70
2019-03-22T00:36:58.557Z,68.40
2019-03-22T00:42:02.148Z,69.40
2019-03-22T00:47:05.810Z,69.30
2019-03-22T00:52:09.395Z,70.30
2019-03-22T00:57:12.986Z,69.40
2019-03-22T01:02:16.573Z,68.00
2019-03-22T01:07:20.229Z,68.10
2019-03-22T01:12:23.819Z,68.50
2019-03-22T01:17:27.869Z,68.30
2019-03-22T01:22:31.477Z,69.60
2019-03-22T01:27:40.410Z,70.20
2019-03-22T01:32:40.783Z,69.50
2019-03-22T01:37:44.377Z,70.00
2019-03-22T01:42:48.094Z,70.60
2019-03-22T01:47:51.923Z,69.60
2019-03-22T01:52:55.885Z,67.70
2019-03-22T01:57:59.782Z,69.90
2019-03-22T02:03:03.816Z,71.70
2019-03-22T02:08:07.506Z,72.50
2019-03-22T02:13:11.090Z,71.50
2019-03-22T02:18:14.827Z,70.40
2019-03-22T02:23:18.714Z,70.40
2019-03-22T02:28:22.301Z,71.20
2019-03-22T02:33:25.894Z,71.80
2019-03-22T02:38:29.476Z,71.30
2019-03-22T02:43:33.076Z,70.40
2019-03-22T02:48:37.025Z,71.50
2019-03-22T02:53:40.615Z,70.50
2019-03-22T02:58:44.647Z,71.00
2019-03-22T03:03:48.199Z,71.60
2019-03-22T03:08:52.141Z,72.20
2019-03-22T03:13:56.061Z,72.90
2019-03-22T03:18:59.646Z,73.40
2019-03-22T03:24:03.237Z,73.00
2019-03-22T03:29:06.889Z,73.50
2019-03-22T03:34:10.487Z,73.50
2019-03-22T03:39:14.078Z,73.10
2019-03-22T03:44:17.800Z,72.90
2019-03-22T03:49:21.452Z,72.20
2019-03-22T03:54:25.054Z,72.30
2019-03-22T03:59:28.640Z,72.80
2019-03-22T04:04:32.630Z,71.40
2019-03-22T04:09:36.219Z,72.40
2019-03-22T04:14:39.802Z,72.80
2019-03-22T04:19:43.766Z,72.00
2019-03-22T04:24:47.354Z,71.70
2019-03-22T04:29:50.943Z,71.90
2019-03-22T04:34:54.543Z,71.70
2019-03-22T04:39:58.141Z,72.50
2019-03-22T04:45:01.735Z,72.30
2019-03-22T04:50:06.739Z,74.40
2019-03-22T04:55:11.359Z,75.30
2019-03-22T05:00:16.184Z,75.00
2019-03-22T05:05:21.225Z,74.80
2019-03-22T05:10:26.274Z,74.40
2019-03-22T05:15:32.170Z,75.00
2019-03-22T05:20:37.128Z,74.90
2019-03-22T05:25:42.358Z,75.60
2019-03-22T05:31:18.816Z,75.50
2019-03-22T05:36:23.242Z,75.00
2019-03-22T05:41:27.196Z,76.20
2019-03-22T05:46:31.273Z,77.00
2019-03-22T05:51:35.262Z,76.80
2019-03-22T05:56:38.897Z,76.50
2019-03-22T06:01:45.140Z,75.50
2019-03-22T06:06:47.926Z,75.00
2019-03-22T06:11:51.589Z,75.60
2019-03-22T06:16:55.261Z,76.60
2019-03-22T06:21:58.851Z,76.50
2019-03-22T06:27:02.438Z,76.70
2019-03-22T06:32:06.130Z,76.40
2019-03-22T06:37:09.741Z,77.00
2019-03-22T06:42:13.335Z,76.70
2019-03-22T06:47:16.931Z,77.40
2019-03-22T06:52:20.525Z,76.80
2019-03-22T06:57:24.119Z,76.70
2019-03-22T07:02:27.709Z,76.40
2019-03-22T07:07:31.378Z,74.30
2019-03-22T07:12:34.979Z,73.60
2019-03-22T07:17:38.570Z,72.00
2019-03-22T07:22:42.172Z,70.30
2019-03-22T07:27:45.766Z,69.70
2019-03-22T07:32:49.387Z,68.30
2019-03-22T07:37:52.969Z,66.60
2019-03-22T07:42:56.561Z,64.70
2019-03-22T07:48:00.250Z,62.50
2019-03-22T07:53:04.315Z,61.50
2019-03-22T07:58:07.903Z,60.70
2019-03-22T08:03:11.499Z,59.60
2019-03-22T08:08:15.090Z,59.90
2019-03-22T08:13:19.038Z,58.90
2019-03-22T08:18:22.655Z,58.10
2019-03-22T08:23:26.264Z,57.00
2019-03-22T08:28:29.845Z,54.40
2019-03-22T08:33:33.432Z,54.60
2019-03-22T08:38:37.347Z,54.40
2019-03-22T08:43:40.948Z,52.20
2019-03-22T08:48:44.878Z,49.90
2019-03-22T08:53:55.260Z,50.60
2019-03-22T08:58:53.823Z,49.90
2019-03-22T09:03:57.412Z,50.00
2019-03-22T09:09:01.385Z,48.90
2019-03-22T09:14:05.058Z,48.20
2019-03-22T09:19:08.681Z,47.20
2019-03-22T09:24:12.705Z,46.90
2019-03-22T09:29:16.725Z,45.00
2019-03-22T09:34:32.878Z,44.60
2019-03-22T09:39:25.586Z,43.50
2019-03-22T09:44:42.401Z,41.80
2019-03-22T09:49:34.504Z,40.30
2019-03-22T09:54:38.427Z,39.70
2019-03-22T09:59:42.066Z,39.00
2019-03-22T10:04:45.675Z,37.80
2019-03-22T10:09:49.342Z,36.90
2019-03-22T10:14:54.323Z,35.70
2019-03-22T10:19:57.887Z,34.20
2019-03-22T10:25:01.867Z,31.40
2019-03-22T10:30:10.580Z,32.70
2019-03-22T10:35:25.523Z,29.10
2019-03-22T10:40:19.867Z,28.60
2019-03-22T10:45:23.466Z,27.40
2019-03-22T10:50:27.091Z,28.50
2019-03-22T10:55:31.016Z,28.80
2019-03-22T11:00:34.919Z,27.70
2019-03-22T11:05:38.541Z,26.60
2019-03-22T11:10:42.145Z,27.20
2019-03-22T11:15:48.728Z,27.00
2019-03-22T11:20:51.231Z,27.00
2019-03-22T11:26:03.816Z,26.40
2019-03-22T11:31:04.684Z,29.50
2019-03-22T11:36:06.206Z,26.90
2019-03-22T11:41:10.438Z,26.40
2019-03-22T11:46:14.389Z,26.40
2019-03-22T11:51:18.956Z,25.60
2019-03-22T11:56:22.851Z,26.00
2019-03-22T12:01:45.786Z,24.90
2019-03-22T12:06:49.537Z,24.10
2019-03-22T12:11:53.150Z,22.60
2019-03-22T12:16:56.867Z,24.90
2019-03-22T12:22:00.436Z,25.20
2019-03-22T12:27:04.098Z,24.40
2019-03-22T12:32:08.571Z,24.60
2019-03-22T12:37:12.162Z,25.30
2019-03-22T12:42:15.902Z,24.80
2019-03-22T12:47:19.568Z,23.80
2019-03-22T12:52:23.162Z,23.80
2019-03-22T12:57:26.761Z,24.70
2019-03-22T13:02:30.688Z,24.60
2019-03-22T13:07:34.428Z,22.90
2019-03-22T13:12:38.164Z,23.00
2019-03-22T13:17:41.846Z,23.80
2019-03-22T13:22:45.947Z,24.50
2019-03-22T13:27:49.717Z,24.30
2019-03-22T13:32:53.329Z,24.60
2019-03-22T13:37:57.295Z,23.10
2019-03-22T13:43:00.957Z,23.50
2019-03-22T13:48:05.132Z,24.50
2019-03-22T13:53:08.794Z,23.80
2019-03-22T13:58:13.226Z,23.30
2019-03-22T14:03:16.795Z,22.80
2019-03-22T14:08:20.771Z,23.90
2019-03-22T14:13:24.675Z,24.80
2019-03-22T14:18:28.279Z,24.70
2019-03-22T14:23:31.945Z,24.60
2019-03-22T14:28:35.616Z,24.30
2019-03-22T14:33:39.573Z,24.80
2019-03-22T14:38:44.340Z,24.50
2019-03-22T14:43:48.101Z,24.80
2019-03-22T14:48:51.752Z,25.80
2019-03-22T14:53:55.471Z,26.20
2019-03-22T14:58:59.069Z,26.10
2019-03-22T15:04:02.742Z,25.40
2019-03-22T15:09:07.587Z,25.50
2019-03-22T15:14:28.131Z,27.10
2019-03-22T15:19:36.830Z,26.60
2019-03-22T15:24:48.258Z,27.20
2019-03-22T15:30:10.915Z,27.60
2019-03-22T15:35:16.361Z,28.30
2019-03-22T15:40:19.918Z,28.30
2019-03-22T15:45:30.302Z,28.50
2019-03-22T15:50:34.518Z,29.10
2019-03-22T15:55:38.182Z,28.30
2019-03-22T16:00:42.250Z,29.30
2019-03-22T16:05:45.919Z,29.50
2019-03-22T16:10:49.523Z,29.60
2019-03-22T16:15:53.544Z,30.00
2019-03-22T16:21:00.069Z,30.00
2019-03-22T16:26:02.581Z,30.30
2019-03-22T16:31:06.268Z,29.80
2019-03-22T16:36:09.996Z,29.30
2019-03-22T16:41:13.694Z,28.90
2019-03-22T16:46:17.808Z,29.00
2019-03-22T16:51:21.838Z,29.50
2019-03-22T16:56:27.198Z,29.80
2019-03-22T17:01:34.082Z,30.00
2019-03-22T17:06:37.858Z,30.20
2019-03-22T17:11:41.464Z,31.80
2019-03-22T17:16:45.135Z,36.20
2019-03-22T17:21:48.821Z,38.80
2019-03-22T17:26:52.858Z,39.10
2019-03-22T17:31:56.597Z,42.20
2019-03-22T17:37:00.623Z,44.20
2019-03-22T17:42:04.818Z,46.50
2019-03-22T17:47:08.490Z,48.00
2019-03-22T17:52:12.193Z,48.80
2019-03-22T17:57:18.926Z,52.10
2019-03-22T18:02:21.631Z,53.20
2019-03-22T18:07:25.275Z,53.60
2019-03-22T18:12:28.865Z,54.40
2019-03-22T18:17:32.478Z,55.20
2019-03-22T18:22:36.198Z,56.30
2019-03-22T18:27:39.926Z,56.30
2019-03-22T18:32:43.762Z,57.20
2019-03-22T18:37:47.464Z,57.40
2019-03-22T18:42:51.033Z,57.10
2019-03-22T18:47:54.622Z,56.90
2019-03-22T18:52:58.286Z,56.30
2019-03-22T18:58:01.954Z,56.40
2019-03-22T19:03:05.550Z,56.40
2019-03-22T19:08:09.170Z,56.10
2019-03-22T19:13:13.125Z,56.00
2019-03-22T19:18:17.129Z,55.60
2019-03-22T19:23:21.183Z,55.40
2019-03-22T19:28:25.111Z,56.40
2019-03-22T19:33:28.849Z,58.70
2019-03-22T19:38:32.850Z,58.70
2019-03-22T19:43:36.778Z,59.30
2019-03-22T19:48:40.370Z,59.60
2019-03-22T19:53:43.982Z,58.50
2019-03-22T19:58:47.582Z,59.50
2019-03-22T20:03:51.602Z,59.80
2019-03-22T20:08:55.262Z,59.60
2019-03-22T20:13:58.877Z,60.10
2019-03-22T20:19:02.470Z,60.00
2019-03-22T20:24:06.066Z,60.70
2019-03-22T20:29:09.738Z,61.30
2019-03-22T20:34:14.690Z,60.50
2019-03-22T20:39:18.592Z,61.60
2019-03-22T20:44:22.196Z,63.10
2019-03-22T20:49:25.789Z,62.20
2019-03-22T20:54:29.466Z,64.40
2019-03-22T20:59:33.066Z,65.10
2019-03-22T21:04:36.668Z,66.90
2019-03-22T21:09:40.262Z,65.70
2019-03-22T21:14:43.882Z,65.20
2019-03-22T21:19:47.805Z,63.70
2019-03-22T21:24:51.396Z,63.30
2019-03-22T21:29:54.992Z,62.30
2019-03-22T21:34:58.584Z,62.60
2019-03-22T21:40:02.254Z,63.20
2019-03-22T21:45:07.037Z,62.40
2019-03-22T21:50:11.631Z,62.30
2019-03-22T21:55:15.251Z,62.10
2019-03-22T22:00:18.911Z,63.20
2019-03-22T22:05:22.498Z,65.40
2019-03-22T22:10:26.170Z,66.20
2019-03-22T22:15:29.769Z,66.10
2019-03-22T22:20:33.349Z,64.30
2019-03-22T22:25:37.246Z,65.00
2019-03-22T22:30:40.905Z,65.50
2019-03-22T22:35:46.855Z,66.40
2019-03-22T22:40:50.014Z,65.70
2019-03-22T22:45:53.599Z,66.90
2019-03-22T22:50:57.614Z,67.00
2019-03-22T22:56:01.203Z,68.70
2019-03-22T23:01:05.050Z,69.10
2019-03-22T23:06:09.696Z,69.40
2019-03-22T23:11:14.046Z,69.30
2019-03-22T23:16:17.651Z,69.60
2019-03-22T23:21:21.761Z,70.70
2019-03-22T23:26:25.347Z,70.40
2019-03-22T23:31:28.945Z,70.50
2019-03-22T23:36:32.621Z,70.90
2019-03-22T23:41:36.278Z,71.30
2019-03-22T23:46:39.934Z,70.80
2019-03-22T23:51:43.537Z,71.60
2019-03-22T23:56:47.145Z,72.10
